sensor_id;sensor_type;location;lat;lon;timestamp;pressure;altitude;pressure_sealevel;temperature;humidity
62510;BME280;48558;48.242;11.654;2023-02-03T00:03:46;97301.81;;;4.24;100.00
62510;BME280;48558;48.242;11.654;2023-02-03T00:07:59;97315.44;;;4.34;100.00
62510;BME280;48558;48.242;11.654;2023-02-03T00:12:21;97317.03;;;4.28;100.00
62510;BME280;48558;48.242;11.654;2023-02-03T00:16:34;97308.81;;;4.28;100.00
62510;BME280;48558;48.242;11.654;2023-02-03T00:20:47;97298.63;;;4.36;100.00
62510;BME280;48558;48.242;11.654;2023-02-03T00:24:59;97294.69;;;4.44;100.00
62510;BME280;48558;48.242;11.654;2023-02-03T00:29:12;97286.88;;;4.43;100.00
62510;BME280;48558;48.242;11.654;2023-02-03T00:33:25;97291.53;;;4.49;100.00
62510;BME280;48558;48.242;11.654;2023-02-03T00:37:40;97304.81;;;4.51;100.00
62510;BME280;48558;48.242;11.654;2023-02-03T00:41:53;97302.91;;;4.48;100.00
62510;BME280;48558;48.242;11.654;2023-02-03T00:46:06;97298.97;;;4.49;100.00
62510;BME280;48558;48.242;11.654;2023-02-03T00:50:18;97309.50;;;4.54;100.00
62510;BME280;48558;48.242;11.654;2023-02-03T00:54:31;97298.22;;;4.45;100.00
62510;BME280;48558;48.242;11.654;2023-02-03T00:58:44;97302.09;;;4.47;100.00
62510;BME280;48558;48.242;11.654;2023-02-03T01:02:57;97298.59;;;4.47;100.00
62510;BME280;48558;48.242;11.654;2023-02-03T01:07:09;97303.25;;;4.57;100.00
62510;BME280;48558;48.242;11.654;2023-02-03T01:11:24;97299.31;;;4.61;100.00
62510;BME280;48558;48.242;11.654;2023-02-03T01:15:45;97298.56;;;4.50;100.00
62510;BME280;48558;48.242;11.654;2023-02-03T01:19:59;97307.06;;;4.66;100.00
62510;BME280;48558;48.242;11.654;2023-02-03T01:24:11;97295.03;;;4.57;100.00
62510;BME280;48558;48.242;11.654;2023-02-03T01:28:26;97301.66;;;4.56;100.00
62510;BME280;48558;48.242;11.654;2023-02-03T01:32:38;97277.41;;;4.58;100.00
62510;BME280;48558;48.242;11.654;2023-02-03T01:36:57;97289.09;;;4.62;100.00
62510;BME280;48558;48.242;11.654;2023-02-03T01:41:15;97286.75;;;4.64;100.00
62510;BME280;48558;48.242;11.654;2023-02-03T01:45:31;97282.47;;;4.63;100.00
62510;BME280;48558;48.242;11.654;2023-02-03T01:54:19;97276.09;;;4.80;100.00
62510;BME280;48558;48.242;11.654;2023-02-03T01:58:37;97275.38;;;4.72;100.00
62510;BME280;48558;48.242;11.654;2023-02-03T02:02:51;97265.19;;;4.76;100.00
62510;BME280;48558;48.242;11.654;2023-02-03T02:07:05;97260.91;;;4.72;100.00
62510;BME280;48558;48.242;11.654;2023-02-03T02:11:28;97268.75;;;4.70;100.00
62510;BME280;48558;48.242;11.654;2023-02-03T02:15:43;97269.91;;;4.69;100.00
62510;BME280;48558;48.242;11.654;2023-02-03T02:34:38;97288.59;;;4.84;100.00
62510;BME280;48558;48.242;11.654;2023-02-03T02:43:56;97294.47;;;4.83;100.00
62510;BME280;48558;48.242;11.654;2023-02-03T02:48:07;97280.66;;;5.00;100.00
62510;BME280;48558;48.242;11.654;2023-02-03T02:52:27;97283.44;;;4.97;100.00
62510;BME280;48558;48.242;11.654;2023-02-03T02:56:44;97268.94;;;4.96;100.00
62510;BME280;48558;48.242;11.654;2023-02-03T03:01:01;97271.22;;;5.05;100.00
62510;BME280;48558;48.242;11.654;2023-02-03T03:05:16;97281.88;;;4.96;100.00
62510;BME280;48558;48.242;11.654;2023-02-03T03:09:32;97284.22;;;4.94;100.00
62510;BME280;48558;48.242;11.654;2023-02-03T03:13:51;97265.03;;;4.97;100.00
62510;BME280;48558;48.242;11.654;2023-02-03T03:18:31;97270.13;;;4.95;100.00
62510;BME280;48558;48.242;11.654;2023-02-03T03:22:53;97275.16;;;5.04;100.00
62510;BME280;48558;48.242;11.654;2023-02-03T03:27:23;97267.00;;;4.93;100.00
62510;BME280;48558;48.242;11.654;2023-02-03T03:31:38;97243.41;;;5.10;100.00
62510;BME280;48558;48.242;11.654;2023-02-03T03:35:54;97230.56;;;5.03;100.00
62510;BME280;48558;48.242;11.654;2023-02-03T03:40:29;97244.72;;;4.95;100.00
62510;BME280;48558;48.242;11.654;2023-02-03T03:44:53;97223.19;;;4.97;100.00
62510;BME280;48558;48.242;11.654;2023-02-03T03:49:09;97243.50;;;4.99;100.00
62510;BME280;48558;48.242;11.654;2023-02-03T03:53:24;97240.41;;;4.97;100.00
62510;BME280;48558;48.242;11.654;2023-02-03T03:57:43;97246.31;;;4.89;100.00
62510;BME280;48558;48.242;11.654;2023-02-03T04:02:00;97223.19;;;4.93;100.00
62510;BME280;48558;48.242;11.654;2023-02-03T04:06:15;97247.44;;;4.95;100.00
62510;BME280;48558;48.242;11.654;2023-02-03T04:14:40;97273.19;;;5.04;100.00
62510;BME280;48558;48.242;11.654;2023-02-03T04:18:53;97267.84;;;4.87;100.00
62510;BME280;48558;48.242;11.654;2023-02-03T04:23:05;97292.84;;;4.92;100.00
62510;BME280;48558;48.242;11.654;2023-02-03T04:27:28;97281.16;;;4.88;100.00
62510;BME280;48558;48.242;11.654;2023-02-03T04:31:41;97274.81;;;4.98;100.00
62510;BME280;48558;48.242;11.654;2023-02-03T04:35:54;97261.19;;;4.88;100.00
62510;BME280;48558;48.242;11.654;2023-02-03T04:40:07;97244.81;;;4.81;100.00
62510;BME280;48558;48.242;11.654;2023-02-03T04:44:20;97280.31;;;4.95;100.00
62510;BME280;48558;48.242;11.654;2023-02-03T04:48:32;97297.53;;;4.92;100.00
62510;BME280;48558;48.242;11.654;2023-02-03T04:52:45;97267.06;;;4.86;100.00
62510;BME280;48558;48.242;11.654;2023-02-03T04:56:57;97274.59;;;4.72;100.00
62510;BME280;48558;48.242;11.654;2023-02-03T05:01:10;97289.03;;;4.79;100.00
62510;BME280;48558;48.242;11.654;2023-02-03T05:05:22;97276.47;;;4.82;100.00
62510;BME280;48558;48.242;11.654;2023-02-03T05:09:35;97284.31;;;4.83;100.00
62510;BME280;48558;48.242;11.654;2023-02-03T05:13:48;97293.31;;;4.80;100.00
62510;BME280;48558;48.242;11.654;2023-02-03T05:18:01;97291.38;;;4.77;100.00
62510;BME280;48558;48.242;11.654;2023-02-03T05:22:14;97279.28;;;4.75;100.00
62510;BME280;48558;48.242;11.654;2023-02-03T05:26:26;97262.91;;;4.68;100.00
62510;BME280;48558;48.242;11.654;2023-02-03T05:30:39;97261.69;;;4.72;100.00
62510;BME280;48558;48.242;11.654;2023-02-03T05:34:51;97246.47;;;4.64;100.00
62510;BME280;48558;48.242;11.654;2023-02-03T05:39:04;97239.84;;;4.62;100.00
62510;BME280;48558;48.242;11.654;2023-02-03T05:43:16;97226.84;;;4.73;100.00
62510;BME280;48558;48.242;11.654;2023-02-03T05:47:29;97234.38;;;4.62;100.00
62510;BME280;48558;48.242;11.654;2023-02-03T05:51:42;97241.81;;;4.58;100.00
62510;BME280;48558;48.242;11.654;2023-02-03T05:55:54;97248.34;;;4.78;100.00
62510;BME280;48558;48.242;11.654;2023-02-03T06:00:07;97239.75;;;4.76;100.00
62510;BME280;48558;48.242;11.654;2023-02-03T06:04:30;97226.47;;;4.71;100.00
62510;BME280;48558;48.242;11.654;2023-02-03T06:08:43;97257.31;;;4.82;100.00
62510;BME280;48558;48.242;11.654;2023-02-03T06:12:56;97244.47;;;4.72;100.00
62510;BME280;48558;48.242;11.654;2023-02-03T06:17:08;97242.53;;;4.69;100.00
62510;BME280;48558;48.242;11.654;2023-02-03T06:21:21;97251.03;;;4.85;100.00
62510;BME280;48558;48.242;11.654;2023-02-03T06:25:34;97260.91;;;4.68;100.00
62510;BME280;48558;48.242;11.654;2023-02-03T06:29:56;97248.28;;;4.85;100.00
62510;BME280;48558;48.242;11.654;2023-02-03T06:34:09;97249.13;;;4.78;100.00
62510;BME280;48558;48.242;11.654;2023-02-03T06:38:21;97250.25;;;4.84;100.00
62510;BME280;48558;48.242;11.654;2023-02-03T06:42:34;97239.72;;;4.83;100.00
62510;BME280;48558;48.242;11.654;2023-02-03T06:46:46;97272.16;;;4.84;100.00
62510;BME280;48558;48.242;11.654;2023-02-03T06:50:59;97269.03;;;4.82;100.00
62510;BME280;48558;48.242;11.654;2023-02-03T06:55:21;97267.50;;;4.81;100.00
62510;BME280;48558;48.242;11.654;2023-02-03T06:59:34;97285.84;;;4.88;100.00
62510;BME280;48558;48.242;11.654;2023-02-03T07:03:57;97278.78;;;4.87;100.00
62510;BME280;48558;48.242;11.654;2023-02-03T07:08:09;97280.78;;;4.83;100.00
62510;BME280;48558;48.242;11.654;2023-02-03T07:12:22;97243.25;;;4.80;100.00
62510;BME280;48558;48.242;11.654;2023-02-03T07:16:34;97259.25;;;4.85;100.00
62510;BME280;48558;48.242;11.654;2023-02-03T07:20:49;97242.41;;;4.90;100.00
62510;BME280;48558;48.242;11.654;2023-02-03T07:25:02;97233.38;;;4.93;100.00
62510;BME280;48558;48.242;11.654;2023-02-03T07:29:15;97229.91;;;4.85;100.00
62510;BME280;48558;48.242;11.654;2023-02-03T07:33:28;97226.00;;;4.83;100.00
62510;BME280;48558;48.242;11.654;2023-02-03T07:37:41;97234.94;;;4.94;100.00
62510;BME280;48558;48.242;11.654;2023-02-03T07:41:54;97248.56;;;5.01;100.00
62510;BME280;48558;48.242;11.654;2023-02-03T07:46:16;97245.41;;;5.06;100.00
62510;BME280;48558;48.242;11.654;2023-02-03T07:50:29;97221.91;;;5.08;100.00
62510;BME280;48558;48.242;11.654;2023-02-03T07:54:41;97222.19;;;5.21;100.00
62510;BME280;48558;48.242;11.654;2023-02-03T07:59:04;97227.91;;;5.34;100.00
62510;BME280;48558;48.242;11.654;2023-02-03T08:03:16;97182.13;;;5.34;100.00
62510;BME280;48558;48.242;11.654;2023-02-03T08:07:29;97206.31;;;5.43;100.00
62510;BME280;48558;48.242;11.654;2023-02-03T08:11:41;97206.16;;;5.57;100.00
62510;BME280;48558;48.242;11.654;2023-02-03T08:15:54;97219.72;;;5.71;100.00
62510;BME280;48558;48.242;11.654;2023-02-03T08:20:08;97229.84;;;5.77;100.00
62510;BME280;48558;48.242;11.654;2023-02-03T08:24:21;97238.06;;;5.77;100.00
62510;BME280;48558;48.242;11.654;2023-02-03T08:28:33;97252.88;;;5.83;100.00
62510;BME280;48558;48.242;11.654;2023-02-03T08:32:46;97273.31;;;5.79;100.00
62510;BME280;48558;48.242;11.654;2023-02-03T08:36:58;97251.84;;;5.74;100.00
62510;BME280;48558;48.242;11.654;2023-02-03T08:41:14;97248.22;;;5.80;100.00
62510;BME280;48558;48.242;11.654;2023-02-03T08:45:29;97228.63;;;5.82;100.00
62510;BME280;48558;48.242;11.654;2023-02-03T08:49:41;97241.13;;;5.87;100.00
62510;BME280;48558;48.242;11.654;2023-02-03T08:53:54;97227.78;;;5.89;100.00
62510;BME280;48558;48.242;11.654;2023-02-03T08:58:07;97218.03;;;5.84;100.00
62510;BME280;48558;48.242;11.654;2023-02-03T09:02:19;97221.50;;;5.88;100.00
62510;BME280;48558;48.242;11.654;2023-02-03T09:06:32;97226.09;;;5.98;100.00
62510;BME280;48558;48.242;11.654;2023-02-03T09:10:45;97221.25;;;6.13;100.00
62510;BME280;48558;48.242;11.654;2023-02-03T09:15:00;97213.50;;;6.04;100.00
62510;BME280;48558;48.242;11.654;2023-02-03T09:19:13;97236.59;;;6.07;100.00
62510;BME280;48558;48.242;11.654;2023-02-03T09:23:26;97224.28;;;6.18;100.00
62510;BME280;48558;48.242;11.654;2023-02-03T09:27:38;97194.53;;;6.17;100.00
62510;BME280;48558;48.242;11.654;2023-02-03T09:31:51;97212.13;;;6.19;100.00
62510;BME280;48558;48.242;11.654;2023-02-03T09:36:05;97220.22;;;6.30;100.00
62510;BME280;48558;48.242;11.654;2023-02-03T09:40:26;97205.16;;;6.41;100.00
62510;BME280;48558;48.242;11.654;2023-02-03T09:44:48;97202.00;;;6.43;100.00
62510;BME280;48558;48.242;11.654;2023-02-03T09:49:23;97219.81;;;6.58;100.00
62510;BME280;48558;48.242;11.654;2023-02-03T09:54:04;97211.13;;;6.63;100.00
62510;BME280;48558;48.242;11.654;2023-02-03T09:58:19;97194.88;;;6.76;100.00
62510;BME280;48558;48.242;11.654;2023-02-03T10:07:09;97215.19;;;6.55;100.00
62510;BME280;48558;48.242;11.654;2023-02-03T10:11:32;97205.44;;;6.77;100.00
62510;BME280;48558;48.242;11.654;2023-02-03T10:15:58;97216.59;;;6.67;100.00
62510;BME280;48558;48.242;11.654;2023-02-03T10:20:22;97224.28;;;6.75;100.00
62510;BME280;48558;48.242;11.654;2023-02-03T10:24:43;97202.22;;;6.82;100.00
62510;BME280;48558;48.242;11.654;2023-02-03T10:29:12;97214.38;;;6.81;100.00
62510;BME280;48558;48.242;11.654;2023-02-03T10:33:30;97210.50;;;6.79;100.00
62510;BME280;48558;48.242;11.654;2023-02-03T10:37:49;97199.09;;;6.80;100.00
62510;BME280;48558;48.242;11.654;2023-02-03T10:42:04;97206.81;;;6.89;100.00
62510;BME280;48558;48.242;11.654;2023-02-03T10:46:25;97212.13;;;6.99;100.00
62510;BME280;48558;48.242;11.654;2023-02-03T10:50:44;97205.34;;;7.07;100.00
62510;BME280;48558;48.242;11.654;2023-02-03T10:55:28;97195.09;;;7.08;100.00
62510;BME280;48558;48.242;11.654;2023-02-03T10:59:43;97207.97;;;7.14;100.00
62510;BME280;48558;48.242;11.654;2023-02-03T11:04:00;97204.13;;;7.08;100.00
62510;BME280;48558;48.242;11.654;2023-02-03T11:08:15;97203.44;;;7.28;100.00
62510;BME280;48558;48.242;11.654;2023-02-03T11:12:28;97159.03;;;7.06;100.00
62510;BME280;48558;48.242;11.654;2023-02-03T11:16:42;97177.66;;;6.95;100.00
62510;BME280;48558;48.242;11.654;2023-02-03T11:21:11;97156.59;;;7.11;100.00
62510;BME280;48558;48.242;11.654;2023-02-03T11:25:34;97153.41;;;7.13;100.00
62510;BME280;48558;48.242;11.654;2023-02-03T11:29:50;97133.66;;;7.41;100.00
62510;BME280;48558;48.242;11.654;2023-02-03T11:34:17;97168.19;;;7.22;100.00
62510;BME280;48558;48.242;11.654;2023-02-03T11:38:41;97150.19;;;6.95;100.00
62510;BME280;48558;48.242;11.654;2023-02-03T11:47:08;97144.38;;;7.12;100.00
62510;BME280;48558;48.242;11.654;2023-02-03T12:24:39;97079.16;;;7.16;100.00
62510;BME280;48558;48.242;11.654;2023-02-03T12:29:09;97069.00;;;7.13;100.00
62510;BME280;48558;48.242;11.654;2023-02-03T12:33:34;97058.53;;;7.28;100.00
62510;BME280;48558;48.242;11.654;2023-02-03T12:38:05;97045.19;;;7.46;100.00
62510;BME280;48558;48.242;11.654;2023-02-03T12:42:31;97028.34;;;7.24;100.00
62510;BME280;48558;48.242;11.654;2023-02-03T12:51:59;97013.09;;;7.40;100.00
62510;BME280;48558;48.242;11.654;2023-02-03T12:56:22;96995.56;;;7.34;100.00
62510;BME280;48558;48.242;11.654;2023-02-03T13:00:44;97004.56;;;7.54;100.00
62510;BME280;48558;48.242;11.654;2023-02-03T13:05:22;97001.50;;;7.32;100.00
62510;BME280;48558;48.242;11.654;2023-02-03T13:14:47;96992.78;;;7.53;100.00
62510;BME280;48558;48.242;11.654;2023-02-03T13:19:10;97010.19;;;7.47;100.00
62510;BME280;48558;48.242;11.654;2023-02-03T13:23:26;96988.06;;;7.54;100.00
62510;BME280;48558;48.242;11.654;2023-02-03T13:27:47;96970.66;;;7.41;100.00
62510;BME280;48558;48.242;11.654;2023-02-03T13:32:25;96973.66;;;7.30;100.00
62510;BME280;48558;48.242;11.654;2023-02-03T13:41:43;96965.75;;;6.93;100.00
62510;BME280;48558;48.242;11.654;2023-02-03T13:46:01;96959.63;;;6.85;100.00
62510;BME280;48558;48.242;11.654;2023-02-03T13:50:23;96954.22;;;6.82;100.00
62510;BME280;48558;48.242;11.654;2023-02-03T13:54:42;96951.47;;;6.82;100.00
62510;BME280;48558;48.242;11.654;2023-02-03T14:07:38;96925.34;;;6.74;100.00
62510;BME280;48558;48.242;11.654;2023-02-03T14:11:52;96899.56;;;6.68;100.00
62510;BME280;48558;48.242;11.654;2023-02-03T14:16:36;96902.84;;;6.79;100.00
62510;BME280;48558;48.242;11.654;2023-02-03T14:21:09;96917.72;;;6.81;100.00
62510;BME280;48558;48.242;11.654;2023-02-03T14:25:25;96930.75;;;6.77;100.00
62510;BME280;48558;48.242;11.654;2023-02-03T14:29:40;96922.66;;;6.70;100.00
62510;BME280;48558;48.242;11.654;2023-02-03T14:34:03;96948.78;;;6.78;100.00
62510;BME280;48558;48.242;11.654;2023-02-03T14:38:30;96920.69;;;6.71;100.00
62510;BME280;48558;48.242;11.654;2023-02-03T14:48:25;96894.94;;;6.65;100.00
62510;BME280;48558;48.242;11.654;2023-02-03T15:11:13;96851.69;;;6.69;100.00
62510;BME280;48558;48.242;11.654;2023-02-03T15:15:34;96848.28;;;6.61;100.00
62510;BME280;48558;48.242;11.654;2023-02-03T15:19:52;96873.09;;;6.58;100.00
62510;BME280;48558;48.242;11.654;2023-02-03T15:24:12;96903.06;;;6.48;100.00
62510;BME280;48558;48.242;11.654;2023-02-03T15:28:30;96879.41;;;6.55;100.00
62510;BME280;48558;48.242;11.654;2023-02-03T15:32:49;96905.25;;;6.57;100.00
62510;BME280;48558;48.242;11.654;2023-02-03T15:37:24;96895.09;;;6.54;100.00
62510;BME280;48558;48.242;11.654;2023-02-03T15:41:57;96888.91;;;6.50;100.00
62510;BME280;48558;48.242;11.654;2023-02-03T15:46:15;96866.97;;;6.50;100.00
62510;BME280;48558;48.242;11.654;2023-02-03T15:50:49;96843.09;;;6.27;100.00
62510;BME280;48558;48.242;11.654;2023-02-03T15:55:16;96898.50;;;6.42;100.00
62510;BME280;48558;48.242;11.654;2023-02-03T15:59:59;96898.63;;;6.35;100.00
62510;BME280;48558;48.242;11.654;2023-02-03T16:04:15;96887.06;;;6.24;100.00
62510;BME280;48558;48.242;11.654;2023-02-03T16:08:42;96907.81;;;6.25;100.00
62510;BME280;48558;48.242;11.654;2023-02-03T16:13:25;96934.19;;;6.42;100.00
62510;BME280;48558;48.242;11.654;2023-02-03T16:17:38;96902.84;;;6.39;100.00
62510;BME280;48558;48.242;11.654;2023-02-03T16:21:57;96889.19;;;6.36;100.00
62510;BME280;48558;48.242;11.654;2023-02-03T16:26:17;96928.13;;;6.31;100.00
62510;BME280;48558;48.242;11.654;2023-02-03T16:35:26;96943.13;;;6.23;100.00
62510;BME280;48558;48.242;11.654;2023-02-03T16:40:09;96973.22;;;6.30;100.00
62510;BME280;48558;48.242;11.654;2023-02-03T16:44:42;96987.50;;;6.18;100.00
62510;BME280;48558;48.242;11.654;2023-02-03T16:49:24;96979.47;;;6.07;100.00
62510;BME280;48558;48.242;11.654;2023-02-03T16:53:55;96960.69;;;6.06;100.00
62510;BME280;48558;48.242;11.654;2023-02-03T16:58:08;96987.38;;;6.02;100.00
62510;BME280;48558;48.242;11.654;2023-02-03T17:02:24;96973.13;;;5.87;100.00
62510;BME280;48558;48.242;11.654;2023-02-03T17:06:47;96977.38;;;5.92;100.00
62510;BME280;48558;48.242;11.654;2023-02-03T17:11:13;96992.81;;;5.78;100.00
62510;BME280;48558;48.242;11.654;2023-02-03T17:15:42;96969.31;;;5.77;100.00
62510;BME280;48558;48.242;11.654;2023-02-03T17:19:56;96990.09;;;5.78;100.00
62510;BME280;48558;48.242;11.654;2023-02-03T17:24:10;96986.50;;;5.81;100.00
62510;BME280;48558;48.242;11.654;2023-02-03T17:28:24;96970.28;;;5.67;100.00
62510;BME280;48558;48.242;11.654;2023-02-03T17:32:37;96976.41;;;5.75;100.00
62510;BME280;48558;48.242;11.654;2023-02-03T17:36:59;96970.13;;;5.74;100.00
62510;BME280;48558;48.242;11.654;2023-02-03T17:41:13;96984.16;;;5.80;100.00
62510;BME280;48558;48.242;11.654;2023-02-03T17:45:47;96976.13;;;5.69;100.00
62510;BME280;48558;48.242;11.654;2023-02-03T17:50:16;96991.25;;;5.77;100.00
62510;BME280;48558;48.242;11.654;2023-02-03T17:54:48;96970.13;;;5.74;100.00
62510;BME280;48558;48.242;11.654;2023-02-03T17:59:02;96980.81;;;5.69;100.00
62510;BME280;48558;48.242;11.654;2023-02-03T18:03:17;96963.69;;;5.61;100.00
62510;BME280;48558;48.242;11.654;2023-02-03T18:07:38;96982.88;;;5.61;100.00
62510;BME280;48558;48.242;11.654;2023-02-03T18:11:51;96985.41;;;5.49;100.00
62510;BME280;48558;48.242;11.654;2023-02-03T18:16:05;96988.53;;;5.47;100.00
62510;BME280;48558;48.242;11.654;2023-02-03T18:20:19;96977.09;;;5.26;100.00
62510;BME280;48558;48.242;11.654;2023-02-03T18:24:32;96985.66;;;5.31;100.00
62510;BME280;48558;48.242;11.654;2023-02-03T18:28:45;96974.69;;;5.31;100.00
62510;BME280;48558;48.242;11.654;2023-02-03T18:32:58;96983.41;;;5.23;100.00
62510;BME280;48558;48.242;11.654;2023-02-03T18:37:12;96981.81;;;5.25;100.00
62510;BME280;48558;48.242;11.654;2023-02-03T18:41:25;96893.47;;;5.18;100.00
62510;BME280;48558;48.242;11.654;2023-02-03T18:45:37;96879.41;;;5.16;100.00
62510;BME280;48558;48.242;11.654;2023-02-03T18:49:50;96908.44;;;5.09;100.00
62510;BME280;48558;48.242;11.654;2023-02-03T18:54:05;96925.84;;;5.23;100.00
62510;BME280;48558;48.242;11.654;2023-02-03T18:58:28;96923.19;;;5.19;100.00
62510;BME280;48558;48.242;11.654;2023-02-03T19:02:40;96926.66;;;5.23;100.00
62510;BME280;48558;48.242;11.654;2023-02-03T19:06:53;96908.66;;;5.22;100.00
62510;BME280;48558;48.242;11.654;2023-02-03T19:11:05;96926.34;;;5.18;100.00
62510;BME280;48558;48.242;11.654;2023-02-03T19:15:18;96892.78;;;5.10;100.00
62510;BME280;48558;48.242;11.654;2023-02-03T19:19:34;96888.75;;;5.18;100.00
62510;BME280;48558;48.242;11.654;2023-02-03T19:23:47;96923.13;;;5.23;100.00
62510;BME280;48558;48.242;11.654;2023-02-03T19:28:00;96936.38;;;5.28;100.00
62510;BME280;48558;48.242;11.654;2023-02-03T19:32:14;96940.41;;;5.20;100.00
62510;BME280;48558;48.242;11.654;2023-02-03T19:36:36;96928.94;;;5.28;100.00
62510;BME280;48558;48.242;11.654;2023-02-03T19:40:49;96955.97;;;5.26;100.00
62510;BME280;48558;48.242;11.654;2023-02-03T19:45:02;96930.59;;;5.22;100.00
62510;BME280;48558;48.242;11.654;2023-02-03T19:49:16;96936.16;;;5.15;100.00
62510;BME280;48558;48.242;11.654;2023-02-03T19:53:29;96923.75;;;5.34;100.00
62510;BME280;48558;48.242;11.654;2023-02-03T19:57:51;96931.59;;;5.32;100.00
62510;BME280;48558;48.242;11.654;2023-02-03T20:02:04;96942.84;;;5.41;100.00
62510;BME280;48558;48.242;11.654;2023-02-03T20:06:30;96951.84;;;5.41;100.00
62510;BME280;48558;48.242;11.654;2023-02-03T20:10:43;96951.47;;;5.39;100.00
62510;BME280;48558;48.242;11.654;2023-02-03T20:14:56;96939.38;;;5.37;100.00
62510;BME280;48558;48.242;11.654;2023-02-03T20:19:11;96944.84;;;5.37;100.00
62510;BME280;48558;48.242;11.654;2023-02-03T20:23:24;96951.53;;;5.36;100.00
62510;BME280;48558;48.242;11.654;2023-02-03T20:27:37;96974.53;;;5.42;100.00
62510;BME280;48558;48.242;11.654;2023-02-03T20:31:49;96974.47;;;5.45;100.00
62510;BME280;48558;48.242;11.654;2023-02-03T20:36:04;96977.97;;;5.49;100.00
62510;BME280;48558;48.242;11.654;2023-02-03T20:40:19;96976.81;;;5.47;100.00
62510;BME280;48558;48.242;11.654;2023-02-03T20:44:34;96974.91;;;5.44;100.00
62510;BME280;48558;48.242;11.654;2023-02-03T20:48:56;97004.25;;;5.47;100.00
62510;BME280;48558;48.242;11.654;2023-02-03T20:53:12;97003.44;;;5.46;100.00
62510;BME280;48558;48.242;11.654;2023-02-03T20:57:26;96984.63;;;5.48;100.00
62510;BME280;48558;48.242;11.654;2023-02-03T21:01:38;97001.06;;;5.48;100.00
62510;BME280;48558;48.242;11.654;2023-02-03T21:05:51;97019.09;;;5.49;100.00
62510;BME280;48558;48.242;11.654;2023-02-03T21:10:16;97004.97;;;5.51;100.00
62510;BME280;48558;48.242;11.654;2023-02-03T21:14:42;96991.72;;;5.46;100.00
62510;BME280;48558;48.242;11.654;2023-02-03T21:18:58;97008.25;;;5.39;100.00
62510;BME280;48558;48.242;11.654;2023-02-03T21:23:13;96998.94;;;5.33;100.00
62510;BME280;48558;48.242;11.654;2023-02-03T21:27:31;96985.50;;;5.42;100.00
62510;BME280;48558;48.242;11.654;2023-02-03T21:31:45;96989.13;;;5.35;100.00
62510;BME280;48558;48.242;11.654;2023-02-03T21:35:57;96973.19;;;5.27;100.00
62510;BME280;48558;48.242;11.654;2023-02-03T21:40:25;96966.50;;;5.28;100.00
62510;BME280;48558;48.242;11.654;2023-02-03T21:44:41;96974.88;;;5.17;100.00
62510;BME280;48558;48.242;11.654;2023-02-03T21:48:59;96993.47;;;5.33;100.00
62510;BME280;48558;48.242;11.654;2023-02-03T21:53:22;96996.28;;;5.26;100.00
62510;BME280;48558;48.242;11.654;2023-02-03T21:57:36;96969.69;;;5.23;100.00
62510;BME280;48558;48.242;11.654;2023-02-03T22:01:49;96983.09;;;5.17;100.00
62510;BME280;48558;48.242;11.654;2023-02-03T22:10:19;96981.50;;;5.20;100.00
62510;BME280;48558;48.242;11.654;2023-02-03T22:14:31;96993.03;;;5.04;100.00
62510;BME280;48558;48.242;11.654;2023-02-03T22:18:45;97007.81;;;5.10;100.00
62510;BME280;48558;48.242;11.654;2023-02-03T22:22:58;96998.91;;;5.02;100.00
62510;BME280;48558;48.242;11.654;2023-02-03T22:27:11;97000.97;;;4.95;100.00
62510;BME280;48558;48.242;11.654;2023-02-03T22:31:23;97007.19;;;4.95;100.00
62510;BME280;48558;48.242;11.654;2023-02-03T22:35:36;97017.44;;;4.91;100.00
62510;BME280;48558;48.242;11.654;2023-02-03T22:39:49;97002.50;;;4.99;100.00
62510;BME280;48558;48.242;11.654;2023-02-03T22:44:10;97029.59;;;4.90;100.00
62510;BME280;48558;48.242;11.654;2023-02-03T22:48:27;97037.50;;;4.81;100.00
62510;BME280;48558;48.242;11.654;2023-02-03T22:52:40;97047.97;;;4.90;100.00
62510;BME280;48558;48.242;11.654;2023-02-03T22:56:53;97061.44;;;4.74;100.00
62510;BME280;48558;48.242;11.654;2023-02-03T23:01:07;97070.38;;;4.78;100.00
62510;BME280;48558;48.242;11.654;2023-02-03T23:05:20;97066.06;;;4.80;100.00
62510;BME280;48558;48.242;11.654;2023-02-03T23:09:33;97073.53;;;4.73;100.00
62510;BME280;48558;48.242;11.654;2023-02-03T23:13:48;97099.38;;;4.72;100.00
62510;BME280;48558;48.242;11.654;2023-02-03T23:18:02;97087.22;;;4.73;100.00
62510;BME280;48558;48.242;11.654;2023-02-03T23:22:18;97088.88;;;4.67;100.00
62510;BME280;48558;48.242;11.654;2023-02-03T23:26:31;97113.84;;;4.72;100.00
62510;BME280;48558;48.242;11.654;2023-02-03T23:30:43;97109.59;;;4.68;100.00
62510;BME280;48558;48.242;11.654;2023-02-03T23:34:56;97103.34;;;4.67;100.00
62510;BME280;48558;48.242;11.654;2023-02-03T23:39:28;97120.53;;;4.68;100.00
62510;BME280;48558;48.242;11.654;2023-02-03T23:43:40;97142.88;;;4.63;100.00
62510;BME280;48558;48.242;11.654;2023-02-03T23:47:53;97143.25;;;4.65;100.00
62510;BME280;48558;48.242;11.654;2023-02-03T23:52:13;97135.81;;;4.62;100.00
62510;BME280;48558;48.242;11.654;2023-02-03T23:56:26;97149.47;;;4.69;100.00
